sensor_id;sensor_type;location;lat;lon;timestamp;pressure;altitude;pressure_sealevel;temperature;humidity
71621;BME280;59471;42.254;23.102;2023-06-24T00:01:24;95844.63;;;20.76;83.71
71621;BME280;59471;42.254;23.102;2023-06-24T00:03:49;95843.09;;;20.80;83.49
71621;BME280;59471;42.254;23.102;2023-06-24T00:06:18;95850.66;;;20.54;84.12
71621;BME280;59471;42.254;23.102;2023-06-24T00:08:45;95851.66;;;20.65;84.84
71621;BME280;59471;42.254;23.102;2023-06-24T00:11:11;95848.44;;;20.80;83.53
71621;BME280;59471;42.254;23.102;2023-06-24T00:13:36;95851.50;;;20.72;83.13
71621;BME280;59471;42.254;23.102;2023-06-24T00:16:02;95857.00;;;20.82;82.81
71621;BME280;59471;42.254;23.102;2023-06-24T00:18:28;95859.88;;;20.80;83.07
71621;BME280;59471;42.254;23.102;2023-06-24T00:20:55;95873.44;;;20.79;82.97
71621;BME280;59471;42.254;23.102;2023-06-24T00:23:23;95864.72;;;20.67;82.63
71621;BME280;59471;42.254;23.102;2023-06-24T00:25:54;95870.41;;;20.58;83.33
71621;BME280;59471;42.254;23.102;2023-06-24T00:28:21;95869.38;;;20.59;83.30
71621;BME280;59471;42.254;23.102;2023-06-24T00:30:47;95865.03;;;20.53;83.02
71621;BME280;59471;42.254;23.102;2023-06-24T00:33:13;95866.91;;;20.41;83.70
71621;BME280;59471;42.254;23.102;2023-06-24T00:35:40;95877.34;;;20.31;83.90
71621;BME280;59471;42.254;23.102;2023-06-24T00:38:05;95886.78;;;20.10;85.29
71621;BME280;59471;42.254;23.102;2023-06-24T00:40:31;95897.88;;;20.19;84.64
71621;BME280;59471;42.254;23.102;2023-06-24T00:42:58;95885.97;;;20.09;85.03
71621;BME280;59471;42.254;23.102;2023-06-24T00:45:24;95885.19;;;20.09;84.83
71621;BME280;59471;42.254;23.102;2023-06-24T00:47:50;95892.59;;;19.95;85.86
71621;BME280;59471;42.254;23.102;2023-06-24T00:50:17;95887.88;;;19.97;85.57
71621;BME280;59471;42.254;23.102;2023-06-24T00:52:43;95882.28;;;20.10;85.16
71621;BME280;59471;42.254;23.102;2023-06-24T00:55:10;95878.75;;;19.93;85.74
71621;BME280;59471;42.254;23.102;2023-06-24T00:57:42;95875.38;;;19.98;85.51
71621;BME280;59471;42.254;23.102;2023-06-24T01:00:08;95882.19;;;20.05;84.93
71621;BME280;59471;42.254;23.102;2023-06-24T01:02:38;95888.06;;;20.07;84.45
71621;BME280;59471;42.254;23.102;2023-06-24T01:05:04;95887.66;;;19.99;84.36
71621;BME280;59471;42.254;23.102;2023-06-24T01:07:35;95885.34;;;19.79;84.79
71621;BME280;59471;42.254;23.102;2023-06-24T01:10:03;95889.28;;;19.76;85.28
71621;BME280;59471;42.254;23.102;2023-06-24T01:12:36;95890.19;;;19.82;84.85
71621;BME280;59471;42.254;23.102;2023-06-24T01:15:05;95881.31;;;19.76;85.19
71621;BME280;59471;42.254;23.102;2023-06-24T01:20:59;95873.56;;;19.63;85.02
71621;BME280;59471;42.254;23.102;2023-06-24T01:29:57;95872.19;;;19.60;86.46
71621;BME280;59471;42.254;23.102;2023-06-24T01:32:30;95861.56;;;19.60;86.64
71621;BME280;59471;42.254;23.102;2023-06-24T01:35:03;95858.31;;;19.70;86.05
71621;BME280;59471;42.254;23.102;2023-06-24T01:37:45;95858.91;;;19.60;86.57
71621;BME280;59471;42.254;23.102;2023-06-24T01:40:23;95861.94;;;19.52;87.34
71621;BME280;59471;42.254;23.102;2023-06-24T01:42:52;95880.66;;;19.45;88.27
71621;BME280;59471;42.254;23.102;2023-06-24T01:45:27;95883.19;;;19.52;88.37
71621;BME280;59471;42.254;23.102;2023-06-24T01:48:18;95891.97;;;19.64;87.36
71621;BME280;59471;42.254;23.102;2023-06-24T01:50:58;95899.69;;;19.78;87.17
71621;BME280;59471;42.254;23.102;2023-06-24T01:53:27;95909.06;;;19.80;86.54
71621;BME280;59471;42.254;23.102;2023-06-24T01:55:55;95903.41;;;19.77;86.34
71621;BME280;59471;42.254;23.102;2023-06-24T01:58:23;95912.53;;;19.69;86.54
71621;BME280;59471;42.254;23.102;2023-06-24T02:00:49;95915.72;;;19.83;85.08
71621;BME280;59471;42.254;23.102;2023-06-24T02:03:17;95928.13;;;19.65;86.03
71621;BME280;59471;42.254;23.102;2023-06-24T02:05:44;95938.03;;;19.58;86.87
71621;BME280;59471;42.254;23.102;2023-06-24T02:08:12;95943.25;;;19.77;85.59
71621;BME280;59471;42.254;23.102;2023-06-24T02:10:39;95946.84;;;19.71;85.97
71621;BME280;59471;42.254;23.102;2023-06-24T02:13:07;95944.72;;;19.49;86.58
71621;BME280;59471;42.254;23.102;2023-06-24T02:15:35;95955.47;;;19.54;86.00
71621;BME280;59471;42.254;23.102;2023-06-24T02:18:03;95953.97;;;19.58;85.98
71621;BME280;59471;42.254;23.102;2023-06-24T02:20:31;95961.13;;;19.46;85.58
71621;BME280;59471;42.254;23.102;2023-06-24T02:22:58;95966.66;;;19.33;86.40
71621;BME280;59471;42.254;23.102;2023-06-24T02:25:25;95970.56;;;19.18;87.28
71621;BME280;59471;42.254;23.102;2023-06-24T02:27:53;95969.50;;;19.08;87.87
71621;BME280;59471;42.254;23.102;2023-06-24T02:30:21;95965.66;;;18.92;88.89
71621;BME280;59471;42.254;23.102;2023-06-24T02:32:47;95973.19;;;19.07;88.42
71621;BME280;59471;42.254;23.102;2023-06-24T02:35:13;95975.38;;;18.98;89.21
71621;BME280;59471;42.254;23.102;2023-06-24T02:37:39;95969.22;;;18.86;89.80
71621;BME280;59471;42.254;23.102;2023-06-24T02:40:06;95965.59;;;19.22;88.32
71621;BME280;59471;42.254;23.102;2023-06-24T02:42:33;95965.59;;;19.22;87.49
71621;BME280;59471;42.254;23.102;2023-06-24T02:44:59;95962.22;;;19.03;88.13
71621;BME280;59471;42.254;23.102;2023-06-24T02:47:25;95960.84;;;19.12;88.21
71621;BME280;59471;42.254;23.102;2023-06-24T02:49:52;95964.53;;;19.11;88.77
71621;BME280;59471;42.254;23.102;2023-06-24T02:52:19;95958.69;;;19.21;87.68
71621;BME280;59471;42.254;23.102;2023-06-24T02:54:45;95971.59;;;19.17;87.95
71621;BME280;59471;42.254;23.102;2023-06-24T02:57:11;95976.56;;;19.26;87.19
71621;BME280;59471;42.254;23.102;2023-06-24T02:59:40;95971.72;;;19.22;87.45
71621;BME280;59471;42.254;23.102;2023-06-24T03:02:06;95971.34;;;19.19;87.35
71621;BME280;59471;42.254;23.102;2023-06-24T03:04:32;95972.63;;;19.16;87.49
71621;BME280;59471;42.254;23.102;2023-06-24T03:06:59;95969.19;;;19.28;86.55
71621;BME280;59471;42.254;23.102;2023-06-24T03:09:26;95971.81;;;19.16;87.01
71621;BME280;59471;42.254;23.102;2023-06-24T03:11:52;95964.91;;;19.15;87.13
71621;BME280;59471;42.254;23.102;2023-06-24T03:14:18;95969.16;;;19.04;87.73
71621;BME280;59471;42.254;23.102;2023-06-24T03:16:44;95972.38;;;19.06;88.37
71621;BME280;59471;42.254;23.102;2023-06-24T03:19:09;95969.41;;;19.14;88.52
71621;BME280;59471;42.254;23.102;2023-06-24T03:21:35;95971.81;;;19.04;89.35
71621;BME280;59471;42.254;23.102;2023-06-24T03:24:00;95973.53;;;19.10;89.34
71621;BME280;59471;42.254;23.102;2023-06-24T03:26:37;95970.44;;;19.25;88.73
71621;BME280;59471;42.254;23.102;2023-06-24T03:29:03;95979.47;;;19.48;87.26
71621;BME280;59471;42.254;23.102;2023-06-24T03:31:29;95977.75;;;19.30;88.08
71621;BME280;59471;42.254;23.102;2023-06-24T03:33:55;95977.63;;;19.36;88.19
71621;BME280;59471;42.254;23.102;2023-06-24T03:36:21;95977.53;;;19.43;88.06
71621;BME280;59471;42.254;23.102;2023-06-24T03:38:47;95976.38;;;19.39;88.34
71621;BME280;59471;42.254;23.102;2023-06-24T03:41:12;95980.03;;;19.38;88.21
71621;BME280;59471;42.254;23.102;2023-06-24T03:43:39;95981.69;;;19.39;88.62
71621;BME280;59471;42.254;23.102;2023-06-24T03:46:04;95977.19;;;19.39;88.72
71621;BME280;59471;42.254;23.102;2023-06-24T03:48:30;95979.25;;;19.49;88.61
71621;BME280;59471;42.254;23.102;2023-06-24T03:50:56;95987.69;;;19.46;88.48
71621;BME280;59471;42.254;23.102;2023-06-24T03:53:21;95977.75;;;19.53;88.51
71621;BME280;59471;42.254;23.102;2023-06-24T03:55:47;95989.22;;;19.65;87.61
71621;BME280;59471;42.254;23.102;2023-06-24T03:58:12;95990.84;;;19.66;87.94
71621;BME280;59471;42.254;23.102;2023-06-24T04:00:39;95993.03;;;19.70;88.37
71621;BME280;59471;42.254;23.102;2023-06-24T04:03:06;95994.22;;;19.74;87.81
71621;BME280;59471;42.254;23.102;2023-06-24T04:05:33;95993.03;;;19.70;87.56
71621;BME280;59471;42.254;23.102;2023-06-24T04:07:59;95982.06;;;19.78;88.04
71621;BME280;59471;42.254;23.102;2023-06-24T04:10:24;96004.94;;;19.90;87.33
71621;BME280;59471;42.254;23.102;2023-06-24T04:12:50;96001.59;;;19.83;87.89
71621;BME280;59471;42.254;23.102;2023-06-24T04:15:16;96014.56;;;19.80;87.85
71621;BME280;59471;42.254;23.102;2023-06-24T04:17:42;96015.66;;;20.07;86.38
71621;BME280;59471;42.254;23.102;2023-06-24T04:20:08;96011.72;;;20.22;85.57
71621;BME280;59471;42.254;23.102;2023-06-24T04:22:36;96011.00;;;20.38;84.35
71621;BME280;59471;42.254;23.102;2023-06-24T04:25:02;96017.97;;;20.16;85.65
71621;BME280;59471;42.254;23.102;2023-06-24T04:27:28;96021.22;;;20.18;86.38
71621;BME280;59471;42.254;23.102;2023-06-24T04:29:53;96027.31;;;20.42;85.44
71621;BME280;59471;42.254;23.102;2023-06-24T04:32:19;96027.97;;;20.49;85.40
71621;BME280;59471;42.254;23.102;2023-06-24T04:34:44;96028.81;;;20.49;85.79
71621;BME280;59471;42.254;23.102;2023-06-24T04:37:10;96026.50;;;20.53;85.42
71621;BME280;59471;42.254;23.102;2023-06-24T04:39:35;96028.22;;;20.59;85.38
71621;BME280;59471;42.254;23.102;2023-06-24T04:42:01;96027.38;;;20.70;85.19
71621;BME280;59471;42.254;23.102;2023-06-24T04:44:27;96027.47;;;20.75;84.76
71621;BME280;59471;42.254;23.102;2023-06-24T04:46:52;96017.28;;;20.84;84.11
71621;BME280;59471;42.254;23.102;2023-06-24T04:49:18;96010.69;;;21.03;82.86
71621;BME280;59471;42.254;23.102;2023-06-24T04:51:44;96021.72;;;20.95;82.73
71621;BME280;59471;42.254;23.102;2023-06-24T04:54:09;96015.41;;;20.85;83.81
71621;BME280;59471;42.254;23.102;2023-06-24T04:56:35;96004.50;;;20.57;84.84
71621;BME280;59471;42.254;23.102;2023-06-24T04:59:01;96004.97;;;21.12;82.27
71621;BME280;59471;42.254;23.102;2023-06-24T05:01:26;96004.31;;;21.04;82.43
71621;BME280;59471;42.254;23.102;2023-06-24T05:03:52;95987.88;;;21.08;82.21
71621;BME280;59471;42.254;23.102;2023-06-24T05:06:17;96000.50;;;21.29;80.83
71621;BME280;59471;42.254;23.102;2023-06-24T05:08:43;96001.13;;;21.19;80.53
71621;BME280;59471;42.254;23.102;2023-06-24T05:11:08;95995.47;;;21.16;81.36
71621;BME280;59471;42.254;23.102;2023-06-24T05:13:34;96003.22;;;21.34;81.02
71621;BME280;59471;42.254;23.102;2023-06-24T05:15:59;96000.75;;;21.61;78.51
71621;BME280;59471;42.254;23.102;2023-06-24T05:18:25;95998.09;;;21.61;78.87
71621;BME280;59471;42.254;23.102;2023-06-24T05:20:51;96004.66;;;21.54;80.31
71621;BME280;59471;42.254;23.102;2023-06-24T05:23:16;95993.22;;;21.92;79.46
71621;BME280;59471;42.254;23.102;2023-06-24T05:25:42;95994.13;;;21.97;79.32
71621;BME280;59471;42.254;23.102;2023-06-24T05:28:07;95994.41;;;22.18;78.57
71621;BME280;59471;42.254;23.102;2023-06-24T05:30:32;96007.59;;;22.08;80.22
71621;BME280;59471;42.254;23.102;2023-06-24T05:32:58;96002.41;;;22.18;80.66
71621;BME280;59471;42.254;23.102;2023-06-24T05:35:23;96001.66;;;22.44;79.06
71621;BME280;59471;42.254;23.102;2023-06-24T05:37:49;96002.41;;;22.62;79.15
71621;BME280;59471;42.254;23.102;2023-06-24T05:40:15;96003.19;;;22.84;78.94
71621;BME280;59471;42.254;23.102;2023-06-24T05:42:40;96010.53;;;22.94;78.15
71621;BME280;59471;42.254;23.102;2023-06-24T05:45:06;95998.66;;;23.07;77.83
71621;BME280;59471;42.254;23.102;2023-06-24T05:47:32;95999.28;;;22.92;78.52
71621;BME280;59471;42.254;23.102;2023-06-24T05:49:58;95986.88;;;23.03;77.86
71621;BME280;59471;42.254;23.102;2023-06-24T05:52:24;95990.50;;;23.19;77.79
71621;BME280;59471;42.254;23.102;2023-06-24T05:54:49;95991.72;;;23.38;77.09
71621;BME280;59471;42.254;23.102;2023-06-24T05:57:15;95987.22;;;23.44;76.90
71621;BME280;59471;42.254;23.102;2023-06-24T05:59:41;95985.66;;;23.48;76.05
71621;BME280;59471;42.254;23.102;2023-06-24T06:02:06;95980.81;;;23.45;75.84
71621;BME280;59471;42.254;23.102;2023-06-24T06:04:32;95984.81;;;23.74;76.16
71621;BME280;59471;42.254;23.102;2023-06-24T06:06:58;95983.81;;;23.80;75.10
71621;BME280;59471;42.254;23.102;2023-06-24T06:09:23;95977.88;;;23.78;76.43
71621;BME280;59471;42.254;23.102;2023-06-24T06:11:49;95976.41;;;23.98;75.95
71621;BME280;59471;42.254;23.102;2023-06-24T06:14:14;95970.56;;;24.11;74.70
71621;BME280;59471;42.254;23.102;2023-06-24T06:16:40;95968.31;;;23.88;74.98
71621;BME280;59471;42.254;23.102;2023-06-24T06:19:05;95967.13;;;24.16;73.87
71621;BME280;59471;42.254;23.102;2023-06-24T06:21:31;95967.66;;;24.13;74.36
71621;BME280;59471;42.254;23.102;2023-06-24T06:23:57;95967.56;;;24.45;74.89
71621;BME280;59471;42.254;23.102;2023-06-24T06:26:23;95977.28;;;24.71;71.84
71621;BME280;59471;42.254;23.102;2023-06-24T06:28:48;95979.81;;;24.36;73.46
71621;BME280;59471;42.254;23.102;2023-06-24T06:31:15;95994.75;;;24.26;74.24
71621;BME280;59471;42.254;23.102;2023-06-24T06:33:41;95980.47;;;24.63;73.41
71621;BME280;59471;42.254;23.102;2023-06-24T06:36:08;95977.19;;;24.46;74.21
71621;BME280;59471;42.254;23.102;2023-06-24T06:38:33;95962.81;;;24.62;74.55
71621;BME280;59471;42.254;23.102;2023-06-24T06:40:59;95964.91;;;24.55;72.76
71621;BME280;59471;42.254;23.102;2023-06-24T06:43:25;95965.56;;;24.98;72.78
71621;BME280;59471;42.254;23.102;2023-06-24T06:45:51;95968.16;;;24.67;71.93
71621;BME280;59471;42.254;23.102;2023-06-24T06:48:16;95957.53;;;24.98;71.01
71621;BME280;59471;42.254;23.102;2023-06-24T06:50:42;95962.41;;;25.32;69.73
71621;BME280;59471;42.254;23.102;2023-06-24T06:53:07;95952.22;;;25.29;69.49
71621;BME280;59471;42.254;23.102;2023-06-24T06:55:33;95960.81;;;25.51;69.88
71621;BME280;59471;42.254;23.102;2023-06-24T06:57:58;95962.38;;;25.62;68.53
71621;BME280;59471;42.254;23.102;2023-06-24T07:00:24;95969.66;;;25.67;68.37
71621;BME280;59471;42.254;23.102;2023-06-24T07:02:50;95969.91;;;25.50;69.93
71621;BME280;59471;42.254;23.102;2023-06-24T07:05:15;95961.28;;;25.94;69.41
71621;BME280;59471;42.254;23.102;2023-06-24T07:07:41;95956.44;;;26.11;69.75
71621;BME280;59471;42.254;23.102;2023-06-24T07:10:09;95956.97;;;26.14;68.24
71621;BME280;59471;42.254;23.102;2023-06-24T07:12:34;95951.78;;;26.38;67.28
71621;BME280;59471;42.254;23.102;2023-06-24T07:15:00;95951.31;;;26.20;67.05
71621;BME280;59471;42.254;23.102;2023-06-24T07:17:25;95945.56;;;26.47;67.75
71621;BME280;59471;42.254;23.102;2023-06-24T07:19:51;95947.09;;;26.69;68.45
71621;BME280;59471;42.254;23.102;2023-06-24T07:22:16;95946.56;;;26.67;65.72
71621;BME280;59471;42.254;23.102;2023-06-24T07:24:42;95944.44;;;25.88;66.82
71621;BME280;59471;42.254;23.102;2023-06-24T07:27:07;95943.59;;;25.98;66.63
71621;BME280;59471;42.254;23.102;2023-06-24T07:29:33;95948.75;;;26.60;67.57
71621;BME280;59471;42.254;23.102;2023-06-24T07:31:59;95950.81;;;26.73;65.52
71621;BME280;59471;42.254;23.102;2023-06-24T07:34:24;95948.84;;;26.29;63.63
71621;BME280;59471;42.254;23.102;2023-06-24T07:36:50;95949.94;;;26.23;64.16
71621;BME280;59471;42.254;23.102;2023-06-24T07:39:16;95952.28;;;26.55;64.04
71621;BME280;59471;42.254;23.102;2023-06-24T07:41:42;95946.41;;;26.92;63.45
71621;BME280;59471;42.254;23.102;2023-06-24T07:44:08;95945.53;;;26.57;61.89
71621;BME280;59471;42.254;23.102;2023-06-24T07:46:34;95939.25;;;26.77;61.92
71621;BME280;59471;42.254;23.102;2023-06-24T07:49:00;95945.47;;;27.12;61.74
71621;BME280;59471;42.254;23.102;2023-06-24T07:51:26;95945.91;;;26.85;61.19
71621;BME280;59471;42.254;23.102;2023-06-24T07:53:52;95948.41;;;27.21;60.31
71621;BME280;59471;42.254;23.102;2023-06-24T07:56:18;95948.13;;;27.52;61.94
71621;BME280;59471;42.254;23.102;2023-06-24T07:58:43;95957.22;;;27.61;59.70
71621;BME280;59471;42.254;23.102;2023-06-24T08:01:09;95944.41;;;27.47;58.42
71621;BME280;59471;42.254;23.102;2023-06-24T08:03:34;95943.66;;;27.71;59.17
71621;BME280;59471;42.254;23.102;2023-06-24T08:06:02;95947.00;;;27.58;59.68
71621;BME280;59471;42.254;23.102;2023-06-24T08:08:28;95948.19;;;28.05;60.27
71621;BME280;59471;42.254;23.102;2023-06-24T08:10:53;95944.31;;;28.16;57.76
71621;BME280;59471;42.254;23.102;2023-06-24T08:13:19;95939.44;;;28.18;56.55
71621;BME280;59471;42.254;23.102;2023-06-24T08:15:45;95944.91;;;28.56;58.11
71621;BME280;59471;42.254;23.102;2023-06-24T08:18:10;95940.81;;;28.82;58.32
71621;BME280;59471;42.254;23.102;2023-06-24T08:20:36;95948.53;;;28.89;58.80
71621;BME280;59471;42.254;23.102;2023-06-24T08:23:01;95936.72;;;28.66;56.99
71621;BME280;59471;42.254;23.102;2023-06-24T08:25:27;95930.56;;;28.41;55.88
71621;BME280;59471;42.254;23.102;2023-06-24T08:27:52;95932.50;;;27.59;58.71
71621;BME280;59471;42.254;23.102;2023-06-24T08:30:18;95938.50;;;28.28;60.49
71621;BME280;59471;42.254;23.102;2023-06-24T08:32:44;95927.53;;;28.67;57.55
71621;BME280;59471;42.254;23.102;2023-06-24T08:35:09;95914.94;;;28.81;56.53
71621;BME280;59471;42.254;23.102;2023-06-24T08:37:36;95920.63;;;28.80;54.06
71621;BME280;59471;42.254;23.102;2023-06-24T08:40:03;95914.34;;;28.84;53.90
71621;BME280;59471;42.254;23.102;2023-06-24T08:42:31;95904.44;;;28.99;57.43
71621;BME280;59471;42.254;23.102;2023-06-24T08:44:57;95903.88;;;29.02;56.54
71621;BME280;59471;42.254;23.102;2023-06-24T08:47:24;95905.00;;;29.47;55.46
71621;BME280;59471;42.254;23.102;2023-06-24T08:49:56;95904.41;;;29.37;52.96
71621;BME280;59471;42.254;23.102;2023-06-24T08:52:31;95898.75;;;29.52;51.39
71621;BME280;59471;42.254;23.102;2023-06-24T08:54:59;95897.91;;;28.67;53.77
71621;BME280;59471;42.254;23.102;2023-06-24T08:57:25;95894.09;;;29.06;55.09
71621;BME280;59471;42.254;23.102;2023-06-24T08:59:52;95896.00;;;29.38;53.72
71621;BME280;59471;42.254;23.102;2023-06-24T09:02:18;95887.25;;;29.60;53.13
71621;BME280;59471;42.254;23.102;2023-06-24T09:04:44;95894.94;;;29.99;52.94
71621;BME280;59471;42.254;23.102;2023-06-24T09:07:10;95893.22;;;30.17;51.15
71621;BME280;59471;42.254;23.102;2023-06-24T09:09:44;95893.81;;;29.87;50.80
71621;BME280;59471;42.254;23.102;2023-06-24T09:12:12;95896.53;;;29.54;52.55
71621;BME280;59471;42.254;23.102;2023-06-24T09:14:39;95893.44;;;29.79;51.94
71621;BME280;59471;42.254;23.102;2023-06-24T09:17:06;95899.31;;;29.82;52.43
71621;BME280;59471;42.254;23.102;2023-06-24T09:19:34;95893.44;;;29.14;53.06
71621;BME280;59471;42.254;23.102;2023-06-24T09:22:03;95903.81;;;29.07;52.16
71621;BME280;59471;42.254;23.102;2023-06-24T09:24:31;95901.13;;;29.07;53.38
71621;BME280;59471;42.254;23.102;2023-06-24T09:26:57;95897.91;;;29.05;53.47
71621;BME280;59471;42.254;23.102;2023-06-24T09:29:27;95904.16;;;29.52;52.20
71621;BME280;59471;42.254;23.102;2023-06-24T09:31:54;95895.19;;;29.24;53.56
71621;BME280;59471;42.254;23.102;2023-06-24T09:34:22;95899.84;;;29.51;55.39
71621;BME280;59471;42.254;23.102;2023-06-24T09:36:52;95900.09;;;29.03;54.06
71621;BME280;59471;42.254;23.102;2023-06-24T09:39:21;95891.44;;;29.39;54.20
71621;BME280;59471;42.254;23.102;2023-06-24T09:41:50;95884.84;;;29.45;54.40
71621;BME280;59471;42.254;23.102;2023-06-24T09:44:16;95882.75;;;29.42;55.75
71621;BME280;59471;42.254;23.102;2023-06-24T09:46:44;95888.91;;;29.61;54.76
71621;BME280;59471;42.254;23.102;2023-06-24T09:49:10;95890.72;;;30.07;54.39
71621;BME280;59471;42.254;23.102;2023-06-24T09:51:43;95879.88;;;30.62;53.61
71621;BME280;59471;42.254;23.102;2023-06-24T09:54:13;95885.78;;;29.21;55.19
71621;BME280;59471;42.254;23.102;2023-06-24T09:56:45;95871.06;;;29.60;55.75
71621;BME280;59471;42.254;23.102;2023-06-24T09:59:13;95874.19;;;30.50;55.57
71621;BME280;59471;42.254;23.102;2023-06-24T10:01:41;95866.56;;;31.02;54.40
71621;BME280;59471;42.254;23.102;2023-06-24T10:04:12;95862.09;;;31.29;54.12
71621;BME280;59471;42.254;23.102;2023-06-24T10:06:41;95855.38;;;31.40;53.14
71621;BME280;59471;42.254;23.102;2023-06-24T10:09:06;95844.25;;;31.50;52.71
71621;BME280;59471;42.254;23.102;2023-06-24T10:11:32;95841.28;;;30.70;50.89
71621;BME280;59471;42.254;23.102;2023-06-24T10:13:57;95840.78;;;30.46;53.62
71621;BME280;59471;42.254;23.102;2023-06-24T10:16:23;95830.28;;;30.67;52.51
71621;BME280;59471;42.254;23.102;2023-06-24T10:18:49;95835.56;;;30.86;52.20
71621;BME280;59471;42.254;23.102;2023-06-24T10:21:15;95836.03;;;31.10;51.09
71621;BME280;59471;42.254;23.102;2023-06-24T10:26:26;95809.84;;;31.82;52.07
71621;BME280;59471;42.254;23.102;2023-06-24T10:31:51;95801.31;;;31.57;51.56
71621;BME280;59471;42.254;23.102;2023-06-24T10:47:44;95791.97;;;32.73;48.17
71621;BME280;59471;42.254;23.102;2023-06-24T10:50:21;95791.56;;;31.96;51.76
71621;BME280;59471;42.254;23.102;2023-06-24T10:52:50;95795.72;;;32.02;51.92
71621;BME280;59471;42.254;23.102;2023-06-24T10:55:22;95798.75;;;32.01;51.21
71621;BME280;59471;42.254;23.102;2023-06-24T10:57:50;95796.22;;;31.65;50.60
71621;BME280;59471;42.254;23.102;2023-06-24T11:00:16;95776.06;;;31.88;50.28
71621;BME280;59471;42.254;23.102;2023-06-24T11:02:42;95773.09;;;31.98;50.36
71621;BME280;59471;42.254;23.102;2023-06-24T11:05:08;95763.06;;;31.99;49.70
71621;BME280;59471;42.254;23.102;2023-06-24T11:07:35;95764.56;;;32.48;51.16
71621;BME280;59471;42.254;23.102;2023-06-24T11:10:12;95760.91;;;32.44;48.63
71621;BME280;59471;42.254;23.102;2023-06-24T11:12:40;95764.44;;;31.79;51.65
71621;BME280;59471;42.254;23.102;2023-06-24T11:15:11;95750.94;;;32.05;51.03
71621;BME280;59471;42.254;23.102;2023-06-24T11:17:38;95749.53;;;32.25;49.65
71621;BME280;59471;42.254;23.102;2023-06-24T11:20:09;95739.66;;;32.12;51.08
71621;BME280;59471;42.254;23.102;2023-06-24T11:22:37;95746.72;;;32.47;48.84
71621;BME280;59471;42.254;23.102;2023-06-24T11:25:03;95753.91;;;31.86;50.86
71621;BME280;59471;42.254;23.102;2023-06-24T11:27:30;95755.78;;;32.25;48.54
71621;BME280;59471;42.254;23.102;2023-06-24T11:30:00;95751.72;;;31.88;50.50
71621;BME280;59471;42.254;23.102;2023-06-24T11:32:40;95750.69;;;31.67;52.55
71621;BME280;59471;42.254;23.102;2023-06-24T11:35:09;95750.91;;;31.39;51.71
71621;BME280;59471;42.254;23.102;2023-06-24T11:37:35;95749.38;;;31.24;51.69
71621;BME280;59471;42.254;23.102;2023-06-24T11:40:12;95744.66;;;30.99;53.58
71621;BME280;59471;42.254;23.102;2023-06-24T11:42:40;95733.22;;;31.02;51.86
71621;BME280;59471;42.254;23.102;2023-06-24T11:45:08;95730.34;;;30.76;53.20
71621;BME280;59471;42.254;23.102;2023-06-24T11:47:36;95728.34;;;30.59;48.98
71621;BME280;59471;42.254;23.102;2023-06-24T11:50:03;95720.78;;;30.47;48.65
71621;BME280;59471;42.254;23.102;2023-06-24T11:52:43;95727.16;;;30.29;49.39
71621;BME280;59471;42.254;23.102;2023-06-24T11:55:23;95709.66;;;30.26;50.11
71621;BME280;59471;42.254;23.102;2023-06-24T11:57:54;95701.97;;;30.19;49.81
71621;BME280;59471;42.254;23.102;2023-06-24T12:00:39;95716.63;;;29.91;54.20
71621;BME280;59471;42.254;23.102;2023-06-24T12:03:09;95712.88;;;29.64;60.82
71621;BME280;59471;42.254;23.102;2023-06-24T12:05:36;95709.38;;;29.08;64.22
71621;BME280;59471;42.254;23.102;2023-06-24T12:10:33;95696.66;;;28.11;69.36
71621;BME280;59471;42.254;23.102;2023-06-24T12:13:01;95721.63;;;27.79;68.59
71621;BME280;59471;42.254;23.102;2023-06-24T12:15:27;95743.22;;;27.49;70.98
71621;BME280;59471;42.254;23.102;2023-06-24T12:17:54;95765.19;;;27.03;74.87
71621;BME280;59471;42.254;23.102;2023-06-24T12:20:20;95769.78;;;26.69;76.32
71621;BME280;59471;42.254;23.102;2023-06-24T12:22:47;95776.44;;;26.37;76.03
71621;BME280;59471;42.254;23.102;2023-06-24T12:25:14;95787.75;;;26.29;78.32
71621;BME280;59471;42.254;23.102;2023-06-24T12:27:42;95789.78;;;26.47;76.63
71621;BME280;59471;42.254;23.102;2023-06-24T12:30:09;95791.97;;;26.45;77.81
71621;BME280;59471;42.254;23.102;2023-06-24T12:32:35;95784.25;;;26.33;72.72
71621;BME280;59471;42.254;23.102;2023-06-24T12:35:01;95786.25;;;26.18;74.03
71621;BME280;59471;42.254;23.102;2023-06-24T12:37:30;95789.56;;;25.99;75.15
71621;BME280;59471;42.254;23.102;2023-06-24T12:39:57;95801.94;;;25.90;77.12
71621;BME280;59471;42.254;23.102;2023-06-24T12:42:22;95814.50;;;26.05;79.37
71621;BME280;59471;42.254;23.102;2023-06-24T12:44:48;95810.31;;;25.68;82.29
71621;BME280;59471;42.254;23.102;2023-06-24T12:47:14;95814.66;;;25.43;85.29
71621;BME280;59471;42.254;23.102;2023-06-24T12:49:39;95815.50;;;25.34;85.72
71621;BME280;59471;42.254;23.102;2023-06-24T12:52:05;95810.19;;;25.03;84.44
71621;BME280;59471;42.254;23.102;2023-06-24T12:54:30;95805.34;;;25.20;82.24
71621;BME280;59471;42.254;23.102;2023-06-24T12:56:56;95796.44;;;25.40;79.92
71621;BME280;59471;42.254;23.102;2023-06-24T12:59:22;95771.84;;;25.23;77.00
71621;BME280;59471;42.254;23.102;2023-06-24T13:01:48;95759.78;;;25.10;78.58
71621;BME280;59471;42.254;23.102;2023-06-24T13:04:13;95761.41;;;25.16;80.12
71621;BME280;59471;42.254;23.102;2023-06-24T13:06:39;95767.84;;;25.00;83.34
71621;BME280;59471;42.254;23.102;2023-06-24T13:09:05;95778.03;;;24.93;82.84
71621;BME280;59471;42.254;23.102;2023-06-24T13:11:31;95803.75;;;24.89;84.87
71621;BME280;59471;42.254;23.102;2023-06-24T13:13:56;95812.59;;;24.64;86.18
71621;BME280;59471;42.254;23.102;2023-06-24T13:16:22;95815.50;;;24.52;85.71
71621;BME280;59471;42.254;23.102;2023-06-24T13:18:47;95820.34;;;24.55;85.43
71621;BME280;59471;42.254;23.102;2023-06-24T13:21:13;95812.78;;;24.37;86.34